createdAt,value
2022-12-12T00:01:51.467Z,2.67
2022-12-12T00:04:23.671Z,2.55
2022-12-12T00:06:55.571Z,2.53
2022-12-12T00:09:27.455Z,2.22
2022-12-12T00:11:59.407Z,2.55
2022-12-12T00:14:31.275Z,2.17
2022-12-12T00:17:03.200Z,2.28
2022-12-12T00:19:35.057Z,2.28
2022-12-12T00:22:06.942Z,1.80
2022-12-12T00:24:38.816Z,2.00
2022-12-12T00:27:10.891Z,2.08
2022-12-12T00:29:42.894Z,1.75
2022-12-12T00:32:14.709Z,1.77
2022-12-12T00:34:46.745Z,1.90
2022-12-12T00:37:18.695Z,2.03
2022-12-12T00:39:51.060Z,1.90
2022-12-12T00:42:22.988Z,2.10
2022-12-12T00:44:54.854Z,1.90
2022-12-12T00:47:26.953Z,1.98
2022-12-12T00:49:58.997Z,1.75
2022-12-12T00:52:30.861Z,1.67
2022-12-12T00:55:02.990Z,1.83
2022-12-12T00:57:35.034Z,1.75
2022-12-12T01:00:09.227Z,1.90
2022-12-12T01:02:41.344Z,1.90
2022-12-12T01:05:14.241Z,1.50
2022-12-12T01:07:46.576Z,1.38
2022-12-12T01:10:18.675Z,1.65
2022-12-12T01:12:51.606Z,1.38
2022-12-12T01:15:23.805Z,1.33
2022-12-12T01:17:55.739Z,1.40
2022-12-12T01:20:28.668Z,1.60
2022-12-12T01:23:00.625Z,1.45
2022-12-12T01:25:33.033Z,1.60
2022-12-12T01:28:05.398Z,1.60
2022-12-12T01:30:37.547Z,1.33
2022-12-12T01:33:09.393Z,1.50
2022-12-12T01:35:41.351Z,1.20
2022-12-12T01:38:13.207Z,1.70
2022-12-12T01:40:45.291Z,1.20
2022-12-12T01:43:19.916Z,1.42
2022-12-12T01:46:09.904Z,1.98
2022-12-12T01:48:50.395Z,1.70
2022-12-12T01:51:25.979Z,1.58
2022-12-12T01:54:07.313Z,1.45
2022-12-12T01:56:41.473Z,1.10
2022-12-12T01:59:16.240Z,1.33
2022-12-12T02:01:48.522Z,1.42
2022-12-12T02:04:22.486Z,1.40
2022-12-12T02:06:55.490Z,1.50
2022-12-12T02:09:28.163Z,1.20
2022-12-12T02:12:00.215Z,1.40
2022-12-12T02:14:35.395Z,1.13
2022-12-12T02:17:22.654Z,1.10
2022-12-12T02:20:32.341Z,1.10
2022-12-12T02:23:30.448Z,1.50
2022-12-12T02:26:40.100Z,1.08
2022-12-12T02:29:42.455Z,1.63
2022-12-12T02:32:41.137Z,1.80
2022-12-12T02:35:28.165Z,1.30
2022-12-12T02:38:16.045Z,1.40
2022-12-12T02:41:04.266Z,1.42
2022-12-12T02:43:45.489Z,1.90
2022-12-12T02:46:26.488Z,1.63
2022-12-12T02:49:18.807Z,1.33
2022-12-12T02:51:53.326Z,1.42
2022-12-12T02:54:25.304Z,1.23
2022-12-12T02:57:00.283Z,1.27
2022-12-12T02:59:41.304Z,1.30
2022-12-12T03:02:28.320Z,1.70
2022-12-12T03:05:30.852Z,1.35
2022-12-12T03:08:09.861Z,1.13
2022-12-12T03:10:53.086Z,1.38
2022-12-12T03:13:51.929Z,1.23
2022-12-12T03:16:38.689Z,1.20
2022-12-12T03:19:19.038Z,1.17
2022-12-12T03:22:22.622Z,1.45
2022-12-12T03:25:01.283Z,1.33
2022-12-12T03:27:41.100Z,1.42
2022-12-12T03:30:18.518Z,1.35
2022-12-12T03:33:04.378Z,1.20
2022-12-12T03:35:53.510Z,1.17
2022-12-12T03:38:32.183Z,1.17
2022-12-12T03:41:07.329Z,1.25
2022-12-12T03:43:58.419Z,1.30
2022-12-12T03:46:42.400Z,1.58
2022-12-12T03:49:21.440Z,1.27
2022-12-12T03:52:03.522Z,1.42
2022-12-12T03:54:47.359Z,1.20
2022-12-12T03:57:28.802Z,1.10
2022-12-12T04:00:13.821Z,1.30
2022-12-12T04:03:30.149Z,1.40
2022-12-12T04:06:28.722Z,1.10
2022-12-12T04:09:30.131Z,1.27
2022-12-12T04:12:35.493Z,1.25
2022-12-12T04:15:10.900Z,1.13
2022-12-12T04:18:00.294Z,1.30
2022-12-12T04:21:23.566Z,1.42
2022-12-12T04:24:15.577Z,1.30
2022-12-12T04:26:55.953Z,1.35
2022-12-12T04:29:52.083Z,1.10
2022-12-12T04:32:42.076Z,1.35
2022-12-12T04:35:26.136Z,1.50
2022-12-12T04:38:03.300Z,1.30
2022-12-12T04:40:39.901Z,1.40
2022-12-12T04:43:19.250Z,1.30
2022-12-12T04:45:57.140Z,1.10
2022-12-12T04:48:38.601Z,1.50
2022-12-12T04:51:14.061Z,2.13
2022-12-12T04:53:50.947Z,1.65
2022-12-12T04:56:28.009Z,1.50
2022-12-12T04:59:00.044Z,1.70
2022-12-12T05:01:53.165Z,1.58
2022-12-12T05:04:36.681Z,1.63
2022-12-12T05:07:14.296Z,1.48
2022-12-12T05:09:46.343Z,1.50
2022-12-12T05:12:18.467Z,1.60
2022-12-12T05:14:50.525Z,1.25
2022-12-12T05:17:28.493Z,1.40
2022-12-12T05:20:00.396Z,1.33
2022-12-12T05:22:32.257Z,1.38
2022-12-12T05:25:04.523Z,1.33
2022-12-12T05:27:36.665Z,1.30
2022-12-12T05:30:10.668Z,1.35
2022-12-12T05:32:42.612Z,1.65
2022-12-12T05:35:14.743Z,1.20
2022-12-12T05:37:51.712Z,1.20
2022-12-12T05:40:24.195Z,2.00
2022-12-12T05:42:57.121Z,2.05
2022-12-12T05:45:29.058Z,2.08
2022-12-12T05:48:01.254Z,1.73
2022-12-12T05:50:33.172Z,2.03
2022-12-12T05:53:05.172Z,1.67
2022-12-12T05:55:37.183Z,2.10
2022-12-12T05:58:09.138Z,1.55
2022-12-12T06:00:41.130Z,2.03
2022-12-12T06:03:13.148Z,1.50
2022-12-12T06:05:45.204Z,1.70
2022-12-12T06:08:20.976Z,1.40
2022-12-12T06:10:56.850Z,1.83
2022-12-12T06:13:28.782Z,1.70
2022-12-12T06:16:05.228Z,1.63
2022-12-12T06:18:37.589Z,1.80
2022-12-12T06:21:11.968Z,2.08
2022-12-12T06:23:44.213Z,2.22
2022-12-12T06:26:17.905Z,1.90
2022-12-12T06:28:50.030Z,2.10
2022-12-12T06:31:21.974Z,2.17
2022-12-12T06:33:53.946Z,2.10
2022-12-12T06:36:26.201Z,1.90
2022-12-12T06:38:59.947Z,2.30
2022-12-12T06:41:33.254Z,1.77
2022-12-12T06:44:05.625Z,1.95
2022-12-12T06:46:37.487Z,2.28
2022-12-12T06:49:12.311Z,2.50
2022-12-12T06:51:44.579Z,2.03
2022-12-12T06:54:18.168Z,1.90
2022-12-12T06:56:50.139Z,1.88
2022-12-12T06:59:21.992Z,4.30
2022-12-12T07:01:59.214Z,5.28
2022-12-12T07:04:31.169Z,3.80
2022-12-12T07:07:03.268Z,3.30
2022-12-12T07:09:35.248Z,3.97
2022-12-12T07:12:07.325Z,4.07
2022-12-12T07:14:40.118Z,4.53
2022-12-12T07:17:12.056Z,4.43
2022-12-12T07:19:44.082Z,3.33
2022-12-12T07:22:15.984Z,3.30
2022-12-12T07:24:47.854Z,4.40
2022-12-12T07:27:21.813Z,4.45
2022-12-12T07:29:53.916Z,5.22
2022-12-12T07:32:25.867Z,5.32
2022-12-12T07:34:57.810Z,5.43
2022-12-12T07:37:29.716Z,5.47
2022-12-12T07:40:01.800Z,4.80
2022-12-12T07:42:33.731Z,2.97
2022-12-12T07:45:06.230Z,3.20
2022-12-12T07:47:38.298Z,3.03
2022-12-12T07:50:10.886Z,3.70
2022-12-12T07:52:42.835Z,2.83
2022-12-12T07:55:15.547Z,3.10
2022-12-12T07:57:47.701Z,3.63
2022-12-12T08:00:20.095Z,3.13
2022-12-12T08:02:53.456Z,3.47
2022-12-12T08:05:25.379Z,3.00
2022-12-12T08:07:57.372Z,2.72
2022-12-12T08:10:29.262Z,3.35
2022-12-12T08:13:01.206Z,2.78
2022-12-12T08:15:33.668Z,3.13
2022-12-12T08:18:05.672Z,3.53
2022-12-12T08:20:40.429Z,3.35
2022-12-12T08:23:12.377Z,3.13
2022-12-12T08:25:44.310Z,3.67
2022-12-12T08:28:16.197Z,3.78
2022-12-12T08:30:51.927Z,3.50
2022-12-12T08:33:23.894Z,3.33
2022-12-12T08:35:56.064Z,3.60
2022-12-12T08:38:28.996Z,3.47
2022-12-12T08:41:03.480Z,3.55
2022-12-12T08:43:36.424Z,3.67
2022-12-12T08:46:15.311Z,3.88
2022-12-12T08:48:49.266Z,3.33
2022-12-12T08:51:21.481Z,3.13
2022-12-12T08:53:53.859Z,3.90
2022-12-12T08:56:26.353Z,7.45
2022-12-12T08:58:58.349Z,8.80
2022-12-12T09:01:30.389Z,8.20
2022-12-12T09:04:02.405Z,7.32
2022-12-12T09:06:34.361Z,5.15
2022-12-12T09:09:06.249Z,4.72
2022-12-12T09:11:38.167Z,5.00
2022-12-12T09:14:10.142Z,4.70
2022-12-12T09:16:42.161Z,4.20
2022-12-12T09:19:14.065Z,5.40
2022-12-12T09:21:47.038Z,4.50
2022-12-12T09:24:19.678Z,3.92
2022-12-12T09:26:51.785Z,3.63
2022-12-12T09:29:23.824Z,3.78
2022-12-12T09:31:57.354Z,3.88
2022-12-12T09:34:29.347Z,3.38
2022-12-12T09:37:01.329Z,3.47
2022-12-12T09:39:33.233Z,3.88
2022-12-12T09:42:22.841Z,3.38
2022-12-12T09:45:00.205Z,4.28
2022-12-12T09:47:35.768Z,4.15
2022-12-12T09:50:38.776Z,4.47
2022-12-12T09:53:15.491Z,4.10
2022-12-12T09:56:14.960Z,14.07
2022-12-12T09:59:10.720Z,19.75
2022-12-12T10:01:54.598Z,15.93
2022-12-12T10:04:36.546Z,11.52
2022-12-12T10:07:24.114Z,8.38
2022-12-12T10:10:16.078Z,14.38
2022-12-12T10:12:49.183Z,8.50
2022-12-12T10:15:44.354Z,7.95
2022-12-12T10:18:23.674Z,6.28
2022-12-12T10:20:59.593Z,4.97
2022-12-12T10:23:36.264Z,4.85
2022-12-12T10:26:15.742Z,6.18
2022-12-12T10:28:53.252Z,5.25
2022-12-12T10:32:02.963Z,16.40
2022-12-12T10:34:51.353Z,5.97
2022-12-12T10:37:45.072Z,5.30
2022-12-12T10:40:22.994Z,5.05
2022-12-12T10:43:22.618Z,4.95
2022-12-12T10:46:11.067Z,4.00
2022-12-12T10:48:43.889Z,3.55
2022-12-12T10:51:19.031Z,3.70
2022-12-12T10:53:52.261Z,4.00
2022-12-12T10:56:29.052Z,3.97
2022-12-12T10:59:04.212Z,4.32
2022-12-12T11:02:09.744Z,4.50
2022-12-12T11:04:31.840Z,4.15
2022-12-12T11:07:03.950Z,4.88
2022-12-12T11:09:44.556Z,5.32
2022-12-12T11:12:17.139Z,5.18
2022-12-12T11:14:52.849Z,5.03
2022-12-12T11:17:29.972Z,4.80
2022-12-12T11:20:07.469Z,5.05
2022-12-12T11:22:39.849Z,6.53
2022-12-12T11:25:30.026Z,5.03
2022-12-12T11:28:06.810Z,6.70
2022-12-12T11:30:43.279Z,4.78
2022-12-12T11:33:22.640Z,5.18
2022-12-12T11:35:56.275Z,5.05
2022-12-12T11:38:40.486Z,5.13
2022-12-12T11:41:13.005Z,5.22
2022-12-12T11:43:47.963Z,4.85
2022-12-12T11:46:24.845Z,5.00
2022-12-12T11:49:04.452Z,5.28
2022-12-12T11:51:36.409Z,5.55
2022-12-12T11:54:30.947Z,5.78
2022-12-12T11:57:04.747Z,7.30
2022-12-12T11:59:39.653Z,6.95
2022-12-12T12:02:34.596Z,8.65
2022-12-12T12:05:22.424Z,7.72
2022-12-12T12:08:07.635Z,7.57
2022-12-12T12:11:09.024Z,7.75
2022-12-12T12:14:02.526Z,7.90
2022-12-12T12:17:05.319Z,8.13
2022-12-12T12:19:57.401Z,8.30
2022-12-12T12:22:58.347Z,8.82
2022-12-12T12:25:52.700Z,8.37
2022-12-12T12:28:52.493Z,8.25
2022-12-12T12:31:24.569Z,9.10
2022-12-12T12:34:21.411Z,8.70
2022-12-12T12:37:15.068Z,7.93
2022-12-12T12:40:12.688Z,7.60
2022-12-12T12:43:08.031Z,7.03
2022-12-12T12:46:04.976Z,7.78
2022-12-12T12:48:39.429Z,7.00
2022-12-12T12:51:21.842Z,7.40
2022-12-12T12:54:13.127Z,7.75
2022-12-12T12:56:54.169Z,7.90
2022-12-12T12:59:32.521Z,7.55
2022-12-12T13:02:16.832Z,8.20
2022-12-12T13:04:59.903Z,8.45
2022-12-12T13:07:42.932Z,7.75
2022-12-12T13:10:33.719Z,7.30
2022-12-12T13:13:34.177Z,7.78
2022-12-12T13:16:11.941Z,8.27
2022-12-12T13:19:01.528Z,8.25
2022-12-12T13:21:59.720Z,8.00
2022-12-12T13:25:01.019Z,7.15
2022-12-12T13:27:45.831Z,7.43
2022-12-12T13:30:30.977Z,7.70
2022-12-12T13:33:50.044Z,8.77
2022-12-12T13:36:30.055Z,9.18
2022-12-12T13:39:18.911Z,9.63
2022-12-12T13:42:01.992Z,9.27
2022-12-12T13:44:48.591Z,10.30
2022-12-12T13:47:24.772Z,10.10
2022-12-12T13:50:05.489Z,11.13
2022-12-12T13:52:44.234Z,11.25
2022-12-12T13:55:19.445Z,11.85
2022-12-12T13:58:02.311Z,13.23
2022-12-12T14:00:40.217Z,13.63
2022-12-12T14:03:13.078Z,13.82
2022-12-12T14:05:53.121Z,14.93
2022-12-12T14:08:34.452Z,16.67
2022-12-12T14:11:09.321Z,17.77
2022-12-12T14:13:50.808Z,18.80
2022-12-12T14:16:26.920Z,19.40
2022-12-12T14:19:37.813Z,19.85
2022-12-12T14:22:26.937Z,20.27
2022-12-12T14:25:20.364Z,20.55
2022-12-12T14:27:52.169Z,21.10
2022-12-12T14:30:33.915Z,22.42
2022-12-12T14:33:18.248Z,22.45
2022-12-12T14:36:12.604Z,21.92
2022-12-12T14:39:28.768Z,22.33
2022-12-12T14:42:05.839Z,21.60
2022-12-12T14:44:49.311Z,22.90
2022-12-12T14:47:23.110Z,22.23
2022-12-12T14:50:16.680Z,24.80
2022-12-12T14:52:48.738Z,24.70
2022-12-12T14:55:20.833Z,24.85
2022-12-12T14:57:53.011Z,25.42
2022-12-12T15:00:26.326Z,24.60
2022-12-12T15:03:02.476Z,25.30
2022-12-12T15:05:34.520Z,26.42
2022-12-12T15:08:19.292Z,26.70
2022-12-12T15:10:59.723Z,26.70
2022-12-12T15:13:35.207Z,12.80
2022-12-12T15:16:07.295Z,24.02
2022-12-12T15:18:39.369Z,25.48
2022-12-12T15:21:11.438Z,26.45
2022-12-12T15:23:43.425Z,26.95
2022-12-12T15:26:20.132Z,28.70
2022-12-12T15:28:54.923Z,28.95
2022-12-12T15:31:26.947Z,27.75
2022-12-12T15:34:00.069Z,29.98
2022-12-12T15:36:32.548Z,35.78
2022-12-12T15:39:11.590Z,37.47
2022-12-12T15:41:45.032Z,40.85
2022-12-12T15:44:20.740Z,31.10
2022-12-12T15:46:53.090Z,36.88
2022-12-12T15:49:42.851Z,34.40
2022-12-12T15:52:30.476Z,43.83
2022-12-12T15:55:05.051Z,33.50
2022-12-12T15:57:51.941Z,33.10
2022-12-12T16:00:32.706Z,34.83
2022-12-12T16:03:16.907Z,33.57
2022-12-12T16:06:02.984Z,35.53
2022-12-12T16:08:36.708Z,32.53
2022-12-12T16:11:32.561Z,32.15
2022-12-12T16:14:06.420Z,29.23
2022-12-12T16:16:38.589Z,27.88
2022-12-12T16:19:43.819Z,34.78
2022-12-12T16:22:29.577Z,28.02
2022-12-12T16:25:22.899Z,26.13
2022-12-12T16:28:10.015Z,33.90
2022-12-12T16:30:44.871Z,30.77
2022-12-12T16:33:36.161Z,27.92
2022-12-12T16:36:13.720Z,30.02
2022-12-12T16:38:45.753Z,26.20
2022-12-12T16:41:18.613Z,26.60
2022-12-12T16:43:50.581Z,24.88
2022-12-12T16:46:25.046Z,26.73
2022-12-12T16:49:04.240Z,34.05
2022-12-12T16:51:37.968Z,26.75
2022-12-12T16:54:15.797Z,24.77
2022-12-12T16:56:52.589Z,22.95
2022-12-12T16:59:24.557Z,23.58
2022-12-12T17:01:56.795Z,23.52
2022-12-12T17:04:31.136Z,23.05
2022-12-12T17:07:03.026Z,22.73
2022-12-12T17:09:34.898Z,21.48
2022-12-12T17:12:09.317Z,20.00
2022-12-12T17:14:44.727Z,20.13
2022-12-12T17:17:16.705Z,20.05
2022-12-12T17:19:48.642Z,18.15
2022-12-12T17:22:21.023Z,17.98
2022-12-12T17:24:54.613Z,18.38
2022-12-12T17:27:29.352Z,17.48
2022-12-12T17:30:03.309Z,17.20
2022-12-12T17:32:35.907Z,17.65
2022-12-12T17:35:08.421Z,15.60
2022-12-12T17:37:40.373Z,15.30
2022-12-12T17:40:13.147Z,16.98
2022-12-12T17:42:47.810Z,19.70
2022-12-12T17:45:19.751Z,20.77
2022-12-12T17:48:00.114Z,21.88
2022-12-12T17:50:34.964Z,19.48
2022-12-12T17:53:11.788Z,17.77
2022-12-12T17:55:53.396Z,17.38
2022-12-12T17:58:32.610Z,25.90
2022-12-12T18:01:24.350Z,26.80
2022-12-12T18:03:57.754Z,24.35
2022-12-12T18:06:33.208Z,21.13
2022-12-12T18:09:08.290Z,15.00
2022-12-12T18:11:45.723Z,14.80
2022-12-12T18:14:18.629Z,15.57
2022-12-12T18:16:54.540Z,16.45
2022-12-12T18:19:27.556Z,16.05
2022-12-12T18:22:01.238Z,16.42
2022-12-12T18:24:33.957Z,16.70
2022-12-12T18:27:06.054Z,17.17
2022-12-12T18:29:38.281Z,22.17
2022-12-12T18:32:10.374Z,24.48
2022-12-12T18:34:43.509Z,20.20
2022-12-12T18:37:16.888Z,22.38
2022-12-12T18:39:48.740Z,17.17
2022-12-12T18:42:21.676Z,17.13
2022-12-12T18:44:53.543Z,15.95
2022-12-12T18:47:25.682Z,19.60
2022-12-12T18:49:57.625Z,19.67
2022-12-12T18:52:29.892Z,22.75
2022-12-12T18:55:02.168Z,19.10
2022-12-12T18:57:34.118Z,15.05
2022-12-12T19:00:07.373Z,18.67
2022-12-12T19:02:40.556Z,17.88
2022-12-12T19:05:13.549Z,24.48
2022-12-12T19:07:47.038Z,20.00
2022-12-12T19:10:19.303Z,21.02
2022-12-12T19:12:51.173Z,17.00
2022-12-12T19:15:23.133Z,14.05
2022-12-12T19:17:56.154Z,15.07
2022-12-12T19:20:28.188Z,16.02
2022-12-12T19:23:00.941Z,12.05
2022-12-12T19:25:39.171Z,12.63
2022-12-12T19:28:14.486Z,11.65
2022-12-12T19:30:46.406Z,13.93
2022-12-12T19:33:18.341Z,12.05
2022-12-12T19:35:50.188Z,11.95
2022-12-12T19:38:24.537Z,10.95
2022-12-12T19:40:57.921Z,10.30
2022-12-12T19:43:31.013Z,11.23
2022-12-12T19:46:08.264Z,11.23
2022-12-12T19:48:40.454Z,10.20
2022-12-12T19:51:18.227Z,11.30
2022-12-12T19:53:53.184Z,10.90
2022-12-12T19:56:27.724Z,13.00
2022-12-12T19:59:00.965Z,9.90
2022-12-12T20:01:36.125Z,9.88
2022-12-12T20:04:17.540Z,9.50
2022-12-12T20:06:50.761Z,9.35
2022-12-12T20:09:27.527Z,8.95
2022-12-12T20:12:02.751Z,9.55
2022-12-12T20:14:35.536Z,9.60
2022-12-12T20:17:07.448Z,9.95
2022-12-12T20:19:39.368Z,8.77
2022-12-12T20:22:13.159Z,8.55
2022-12-12T20:24:45.503Z,8.15
2022-12-12T20:27:17.596Z,9.00
2022-12-12T20:29:49.498Z,9.02
2022-12-12T20:32:23.096Z,8.90
2022-12-12T20:34:55.243Z,8.75
2022-12-12T20:37:27.114Z,8.63
2022-12-12T20:39:58.986Z,7.93
2022-12-12T20:42:31.427Z,8.82
2022-12-12T20:45:03.541Z,8.88
2022-12-12T20:47:35.449Z,7.80
2022-12-12T20:50:07.528Z,14.05
2022-12-12T20:52:42.043Z,18.48
2022-12-12T20:55:14.851Z,24.73
2022-12-12T20:57:47.605Z,16.40
2022-12-12T21:00:19.577Z,15.23
2022-12-12T21:02:51.628Z,7.72
2022-12-12T21:05:24.038Z,7.40
2022-12-12T21:07:56.197Z,7.30
2022-12-12T21:10:28.258Z,7.07
2022-12-12T21:13:00.211Z,7.82
2022-12-12T21:15:32.140Z,8.52
2022-12-12T21:18:04.445Z,8.68
2022-12-12T21:20:36.450Z,7.80
2022-12-12T21:23:08.381Z,7.60
2022-12-12T21:25:40.462Z,7.65
2022-12-12T21:28:12.663Z,8.05
2022-12-12T21:30:44.808Z,8.63
2022-12-12T21:33:17.356Z,9.70
2022-12-12T21:35:49.258Z,11.02
2022-12-12T21:38:21.322Z,9.52
2022-12-12T21:40:53.333Z,9.00
2022-12-12T21:43:25.214Z,7.25
2022-12-12T21:45:57.317Z,7.45
2022-12-12T21:48:30.046Z,6.57
2022-12-12T21:51:03.139Z,6.45
2022-12-12T21:53:35.611Z,7.90
2022-12-12T21:56:08.896Z,7.85
2022-12-12T21:58:42.494Z,8.70
2022-12-12T22:01:19.674Z,8.68
2022-12-12T22:03:51.700Z,8.02
2022-12-12T22:06:29.291Z,7.03
2022-12-12T22:09:05.006Z,6.85
2022-12-12T22:11:41.998Z,6.35
2022-12-12T22:14:24.357Z,6.63
2022-12-12T22:16:56.328Z,6.57
2022-12-12T22:19:28.501Z,7.70
2022-12-12T22:22:00.339Z,7.72
2022-12-12T22:24:32.402Z,5.90
2022-12-12T22:27:04.494Z,6.10
2022-12-12T22:29:36.587Z,6.07
2022-12-12T22:32:08.495Z,7.25
2022-12-12T22:34:40.686Z,6.30
2022-12-12T22:37:12.589Z,5.45
2022-12-12T22:39:44.528Z,5.30
2022-12-12T22:42:16.640Z,5.30
2022-12-12T22:44:49.158Z,5.30
2022-12-12T22:47:21.076Z,5.45
2022-12-12T22:49:52.975Z,5.53
2022-12-12T22:52:25.549Z,5.45
2022-12-12T22:54:57.481Z,5.93
2022-12-12T22:57:29.476Z,5.35
2022-12-12T23:00:01.423Z,4.97
2022-12-12T23:02:34.188Z,26.25
2022-12-12T23:05:06.569Z,5.30
2022-12-12T23:07:38.683Z,5.20
2022-12-12T23:10:10.621Z,5.00
2022-12-12T23:12:42.640Z,4.55
2022-12-12T23:15:14.854Z,5.07
2022-12-12T23:17:47.330Z,4.80
2022-12-12T23:20:20.200Z,5.07
2022-12-12T23:22:52.176Z,4.90
2022-12-12T23:25:24.184Z,5.07
2022-12-12T23:27:56.093Z,4.82
2022-12-12T23:30:27.953Z,5.68
2022-12-12T23:32:59.960Z,5.28
2022-12-12T23:35:32.068Z,4.45
2022-12-12T23:38:03.949Z,4.68
2022-12-12T23:40:36.129Z,4.60
2022-12-12T23:43:08.137Z,4.80
2022-12-12T23:45:40.317Z,4.55
2022-12-12T23:48:12.201Z,4.72
2022-12-12T23:50:44.119Z,4.40
2022-12-12T23:53:16.069Z,4.32
2022-12-12T23:55:48.974Z,4.53
2022-12-12T23:58:20.993Z,4.63
